Terminal Aerodrome Forecast
Issued by NWS

Home | Current Version | Previous Version | Text Only | Print | Product List | Glossary On
Versions: 1 2 3 4 5 6 7 8 9 10 11 12
000
FTUS44 KOUN 282328
TAFWWR
TAF
KWWR 282328Z 2900/2924 12004KT P6SM SCT070
      TEMPO 2904/2908 35025G40KT 2SM TSRA OVC030CB
     FM290800 13010KT P6SM VCTS SCT040CB OVC100
     FM291200 10007KT P6SM SCT050
      AMD NOT SKED=

USA.gov is the U.S. government's official web portal to all federal, state and local government web resources and services.